sensor_id;sensor_type;location;lat;lon;timestamp;pressure;altitude;pressure_sealevel;temperature;humidity
48882;BME280;57063;51.406;-2.402;2023-03-18T00:01:46;99260.53;;;9.77;100.00
48882;BME280;57063;51.406;-2.402;2023-03-18T00:04:12;99246.13;;;9.74;100.00
48882;BME280;57063;51.406;-2.402;2023-03-18T00:06:37;99250.84;;;9.80;100.00
48882;BME280;57063;51.406;-2.402;2023-03-18T00:09:03;99239.09;;;9.76;100.00
48882;BME280;57063;51.406;-2.402;2023-03-18T00:11:29;99243.78;;;9.82;100.00
48882;BME280;57063;51.406;-2.402;2023-03-18T00:13:56;99255.38;;;9.77;100.00
48882;BME280;57063;51.406;-2.402;2023-03-18T00:16:23;99254.06;;;9.71;100.00
48882;BME280;57063;51.406;-2.402;2023-03-18T00:18:51;99250.28;;;9.64;100.00
48882;BME280;57063;51.406;-2.402;2023-03-18T00:21:17;99250.28;;;9.64;100.00
48882;BME280;57063;51.406;-2.402;2023-03-18T00:23:43;99254.31;;;9.79;100.00
48882;BME280;57063;51.406;-2.402;2023-03-18T00:26:08;99247.97;;;9.72;100.00
48882;BME280;57063;51.406;-2.402;2023-03-18T00:28:35;99258.66;;;9.79;100.00
48882;BME280;57063;51.406;-2.402;2023-03-18T00:31:07;99239.03;;;9.65;100.00
48882;BME280;57063;51.406;-2.402;2023-03-18T00:33:37;99245.84;;;9.66;100.00
48882;BME280;57063;51.406;-2.402;2023-03-18T00:36:04;99235.56;;;9.66;100.00
48882;BME280;57063;51.406;-2.402;2023-03-18T00:38:31;99234.72;;;9.65;100.00
48882;BME280;57063;51.406;-2.402;2023-03-18T00:40:58;99240.97;;;9.74;100.00
48882;BME280;57063;51.406;-2.402;2023-03-18T00:43:37;99249.88;;;9.81;100.00
48882;BME280;57063;51.406;-2.402;2023-03-18T00:46:11;99239.53;;;9.70;100.00
48882;BME280;57063;51.406;-2.402;2023-03-18T00:48:37;99242.81;;;9.72;100.00
48882;BME280;57063;51.406;-2.402;2023-03-18T00:51:03;99239.31;;;9.73;100.00
48882;BME280;57063;51.406;-2.402;2023-03-18T00:53:29;99244.97;;;9.78;100.00
48882;BME280;57063;51.406;-2.402;2023-03-18T00:55:54;99255.84;;;9.82;100.00
48882;BME280;57063;51.406;-2.402;2023-03-18T00:58:19;99254.09;;;9.82;100.00
48882;BME280;57063;51.406;-2.402;2023-03-18T01:00:45;99259.59;;;9.78;100.00
48882;BME280;57063;51.406;-2.402;2023-03-18T01:03:11;99254.22;;;9.81;100.00
48882;BME280;57063;51.406;-2.402;2023-03-18T01:05:38;99255.75;;;9.83;100.00
48882;BME280;57063;51.406;-2.402;2023-03-18T01:08:04;99236.47;;;9.65;100.00
48882;BME280;57063;51.406;-2.402;2023-03-18T01:10:30;99245.78;;;9.79;100.00
48882;BME280;57063;51.406;-2.402;2023-03-18T01:12:56;99227.13;;;9.64;100.00
48882;BME280;57063;51.406;-2.402;2023-03-18T01:15:22;99231.97;;;9.56;100.00
48882;BME280;57063;51.406;-2.402;2023-03-18T01:17:48;99245.72;;;9.68;100.00
48882;BME280;57063;51.406;-2.402;2023-03-18T01:20:15;99252.69;;;9.78;100.00
48882;BME280;57063;51.406;-2.402;2023-03-18T01:22:42;99249.84;;;9.70;100.00
48882;BME280;57063;51.406;-2.402;2023-03-18T01:25:09;99253.13;;;9.72;100.00
48882;BME280;57063;51.406;-2.402;2023-03-18T01:27:35;99240.41;;;9.58;100.00
48882;BME280;57063;51.406;-2.402;2023-03-18T01:30:03;99229.06;;;9.60;100.00
48882;BME280;57063;51.406;-2.402;2023-03-18T01:32:28;99232.97;;;9.66;100.00
48882;BME280;57063;51.406;-2.402;2023-03-18T01:34:54;99225.25;;;9.66;100.00
48882;BME280;57063;51.406;-2.402;2023-03-18T01:37:19;99231.81;;;9.70;100.00
48882;BME280;57063;51.406;-2.402;2023-03-18T01:39:46;99237.66;;;9.72;100.00
48882;BME280;57063;51.406;-2.402;2023-03-18T01:42:11;99227.13;;;9.75;100.00
48882;BME280;57063;51.406;-2.402;2023-03-18T01:44:39;99213.41;;;9.63;100.00
48882;BME280;57063;51.406;-2.402;2023-03-18T01:47:04;99223.72;;;9.63;100.00
48882;BME280;57063;51.406;-2.402;2023-03-18T01:49:36;99226.31;;;9.75;100.00
48882;BME280;57063;51.406;-2.402;2023-03-18T01:54:36;99235.56;;;9.77;100.00
48882;BME280;57063;51.406;-2.402;2023-03-18T01:57:02;99222.44;;;9.69;100.00
48882;BME280;57063;51.406;-2.402;2023-03-18T01:59:31;99217.53;;;9.66;100.00
48882;BME280;57063;51.406;-2.402;2023-03-18T02:02:06;99224.06;;;9.70;100.00
48882;BME280;57063;51.406;-2.402;2023-03-18T02:04:42;99230.13;;;9.58;100.00
48882;BME280;57063;51.406;-2.402;2023-03-18T02:07:15;99223.97;;;9.72;100.00
48882;BME280;57063;51.406;-2.402;2023-03-18T02:09:42;99205.56;;;9.65;100.00
48882;BME280;57063;51.406;-2.402;2023-03-18T02:12:07;99200.25;;;9.55;100.00
48882;BME280;57063;51.406;-2.402;2023-03-18T02:14:33;99203.78;;;9.54;100.00
48882;BME280;57063;51.406;-2.402;2023-03-18T02:17:02;99198.50;;;9.56;100.00
48882;BME280;57063;51.406;-2.402;2023-03-18T02:19:50;99222.66;;;9.66;100.00
48882;BME280;57063;51.406;-2.402;2023-03-18T02:22:24;99219.63;;;9.61;100.00
48882;BME280;57063;51.406;-2.402;2023-03-18T02:27:32;99224.31;;;9.67;100.00
48882;BME280;57063;51.406;-2.402;2023-03-18T02:30:03;99188.16;;;9.45;100.00
48882;BME280;57063;51.406;-2.402;2023-03-18T02:32:31;99195.56;;;9.49;100.00
48882;BME280;57063;51.406;-2.402;2023-03-18T02:35:00;99202.72;;;9.57;100.00
48882;BME280;57063;51.406;-2.402;2023-03-18T02:37:27;99207.66;;;9.60;100.00
48882;BME280;57063;51.406;-2.402;2023-03-18T02:39:53;99214.22;;;9.64;100.00
48882;BME280;57063;51.406;-2.402;2023-03-18T02:42:31;99214.66;;;9.58;100.00
48882;BME280;57063;51.406;-2.402;2023-03-18T02:44:57;99219.63;;;9.61;100.00
48882;BME280;57063;51.406;-2.402;2023-03-18T02:47:24;99201.75;;;9.47;100.00
48882;BME280;57063;51.406;-2.402;2023-03-18T02:49:51;99202.34;;;9.50;100.00
48882;BME280;57063;51.406;-2.402;2023-03-18T02:52:17;99209.75;;;9.55;100.00
48882;BME280;57063;51.406;-2.402;2023-03-18T02:54:42;99202.47;;;9.49;100.00
48882;BME280;57063;51.406;-2.402;2023-03-18T02:57:08;99218.44;;;9.65;100.00
48882;BME280;57063;51.406;-2.402;2023-03-18T02:59:33;99182.25;;;9.31;100.00
48882;BME280;57063;51.406;-2.402;2023-03-18T03:01:59;99219.66;;;9.48;100.00
48882;BME280;57063;51.406;-2.402;2023-03-18T03:04:26;99204.66;;;9.42;100.00
48882;BME280;57063;51.406;-2.402;2023-03-18T03:06:53;99201.88;;;9.45;100.00
48882;BME280;57063;51.406;-2.402;2023-03-18T03:09:19;99226.56;;;9.48;100.00
48882;BME280;57063;51.406;-2.402;2023-03-18T03:11:46;99206.13;;;9.33;100.00
48882;BME280;57063;51.406;-2.402;2023-03-18T03:14:14;99216.41;;;9.46;100.00
48882;BME280;57063;51.406;-2.402;2023-03-18T03:16:40;99212.81;;;9.36;100.00
48882;BME280;57063;51.406;-2.402;2023-03-18T03:19:06;99206.84;;;9.35;100.00
48882;BME280;57063;51.406;-2.402;2023-03-18T03:21:33;99206.75;;;9.37;100.00
48882;BME280;57063;51.406;-2.402;2023-03-18T03:24:03;99214.66;;;9.23;100.00
48882;BME280;57063;51.406;-2.402;2023-03-18T03:26:29;99214.22;;;9.05;100.00
48882;BME280;57063;51.406;-2.402;2023-03-18T03:28:55;99217.97;;;9.12;100.00
48882;BME280;57063;51.406;-2.402;2023-03-18T03:31:21;99204.47;;;8.84;100.00
48882;BME280;57063;51.406;-2.402;2023-03-18T03:33:48;99202.63;;;8.86;100.00
48882;BME280;57063;51.406;-2.402;2023-03-18T03:36:14;99212.06;;;8.98;100.00
48882;BME280;57063;51.406;-2.402;2023-03-18T03:38:41;99215.38;;;9.12;100.00
48882;BME280;57063;51.406;-2.402;2023-03-18T03:41:07;99232.75;;;9.21;100.00
48882;BME280;57063;51.406;-2.402;2023-03-18T03:43:35;99222.91;;;9.15;100.00
48882;BME280;57063;51.406;-2.402;2023-03-18T03:46:00;99209.34;;;9.13;100.00
48882;BME280;57063;51.406;-2.402;2023-03-18T03:48:26;99214.25;;;9.16;100.00
48882;BME280;57063;51.406;-2.402;2023-03-18T03:50:52;99205.81;;;9.14;100.00
48882;BME280;57063;51.406;-2.402;2023-03-18T03:53:19;99206.31;;;9.19;100.00
48882;BME280;57063;51.406;-2.402;2023-03-18T03:55:45;99227.06;;;9.29;100.00
48882;BME280;57063;51.406;-2.402;2023-03-18T03:58:10;99230.81;;;9.25;100.00
48882;BME280;57063;51.406;-2.402;2023-03-18T04:00:36;99222.84;;;9.28;100.00
48882;BME280;57063;51.406;-2.402;2023-03-18T04:03:01;99229.78;;;9.27;100.00
48882;BME280;57063;51.406;-2.402;2023-03-18T04:05:28;99242.00;;;9.36;100.00
48882;BME280;57063;51.406;-2.402;2023-03-18T04:07:54;99218.03;;;9.23;100.00
48882;BME280;57063;51.406;-2.402;2023-03-18T04:10:20;99229.06;;;9.25;100.00
48882;BME280;57063;51.406;-2.402;2023-03-18T04:12:47;99223.28;;;9.21;100.00
48882;BME280;57063;51.406;-2.402;2023-03-18T04:15:15;99263.56;;;9.47;100.00
48882;BME280;57063;51.406;-2.402;2023-03-18T04:17:41;99259.63;;;9.54;100.00
48882;BME280;57063;51.406;-2.402;2023-03-18T04:20:07;99248.06;;;9.35;100.00
48882;BME280;57063;51.406;-2.402;2023-03-18T04:22:33;99239.03;;;9.30;100.00
48882;BME280;57063;51.406;-2.402;2023-03-18T04:24:59;99243.56;;;9.26;100.00
48882;BME280;57063;51.406;-2.402;2023-03-18T04:27:25;99240.56;;;9.32;100.00
48882;BME280;57063;51.406;-2.402;2023-03-18T04:29:52;99234.78;;;9.29;100.00
48882;BME280;57063;51.406;-2.402;2023-03-18T04:32:18;99236.06;;;9.23;100.00
48882;BME280;57063;51.406;-2.402;2023-03-18T04:34:43;99222.19;;;9.13;100.00
48882;BME280;57063;51.406;-2.402;2023-03-18T04:37:09;99244.59;;;9.24;100.00
48882;BME280;57063;51.406;-2.402;2023-03-18T04:39:35;99239.56;;;9.22;100.00
48882;BME280;57063;51.406;-2.402;2023-03-18T04:42:01;99240.63;;;9.19;100.00
48882;BME280;57063;51.406;-2.402;2023-03-18T04:44:26;99236.84;;;9.12;100.00
48882;BME280;57063;51.406;-2.402;2023-03-18T04:46:52;99231.69;;;9.12;100.00
48882;BME280;57063;51.406;-2.402;2023-03-18T04:49:18;99235.78;;;9.15;100.00
48882;BME280;57063;51.406;-2.402;2023-03-18T04:51:44;99231.88;;;9.09;100.00
48882;BME280;57063;51.406;-2.402;2023-03-18T04:54:10;99226.56;;;8.99;100.00
48882;BME280;57063;51.406;-2.402;2023-03-18T04:56:36;99234.91;;;9.03;100.00
48882;BME280;57063;51.406;-2.402;2023-03-18T04:59:03;99259.44;;;9.20;100.00
48882;BME280;57063;51.406;-2.402;2023-03-18T05:01:28;99247.16;;;9.24;100.00
48882;BME280;57063;51.406;-2.402;2023-03-18T05:03:54;99248.22;;;9.21;100.00
48882;BME280;57063;51.406;-2.402;2023-03-18T05:06:26;99233.72;;;9.20;100.00
48882;BME280;57063;51.406;-2.402;2023-03-18T05:08:51;99264.66;;;9.31;100.00
48882;BME280;57063;51.406;-2.402;2023-03-18T05:11:18;99237.81;;;9.23;100.00
48882;BME280;57063;51.406;-2.402;2023-03-18T05:13:43;99244.72;;;9.22;100.00
48882;BME280;57063;51.406;-2.402;2023-03-18T05:16:09;99251.50;;;9.23;100.00
48882;BME280;57063;51.406;-2.402;2023-03-18T05:18:35;99244.44;;;9.14;100.00
48882;BME280;57063;51.406;-2.402;2023-03-18T05:21:01;99243.13;;;9.08;100.00
48882;BME280;57063;51.406;-2.402;2023-03-18T05:23:27;99243.03;;;9.10;100.00
48882;BME280;57063;51.406;-2.402;2023-03-18T05:25:53;99245.75;;;9.19;100.00
48882;BME280;57063;51.406;-2.402;2023-03-18T05:28:19;99235.63;;;9.05;100.00
48882;BME280;57063;51.406;-2.402;2023-03-18T05:30:47;99246.09;;;9.15;100.00
48882;BME280;57063;51.406;-2.402;2023-03-18T05:33:13;99254.72;;;9.14;100.00
48882;BME280;57063;51.406;-2.402;2023-03-18T05:35:38;99249.78;;;9.11;100.00
48882;BME280;57063;51.406;-2.402;2023-03-18T05:38:04;99267.41;;;9.17;100.00
48882;BME280;57063;51.406;-2.402;2023-03-18T05:40:31;99250.75;;;9.10;100.00
48882;BME280;57063;51.406;-2.402;2023-03-18T05:42:56;99268.81;;;9.21;100.00
48882;BME280;57063;51.406;-2.402;2023-03-18T05:45:22;99273.97;;;9.21;100.00
48882;BME280;57063;51.406;-2.402;2023-03-18T05:47:48;99274.56;;;9.25;100.00
48882;BME280;57063;51.406;-2.402;2023-03-18T05:50:37;99258.34;;;9.11;100.00
48882;BME280;57063;51.406;-2.402;2023-03-18T05:53:03;99269.03;;;9.18;100.00
48882;BME280;57063;51.406;-2.402;2023-03-18T05:55:29;99264.31;;;9.12;100.00
48882;BME280;57063;51.406;-2.402;2023-03-18T05:57:55;99284.47;;;9.18;100.00
48882;BME280;57063;51.406;-2.402;2023-03-18T06:00:22;99278.38;;;9.19;100.00
48882;BME280;57063;51.406;-2.402;2023-03-18T06:02:49;99249.63;;;9.01;100.00
48882;BME280;57063;51.406;-2.402;2023-03-18T06:05:17;99283.25;;;9.11;100.00
48882;BME280;57063;51.406;-2.402;2023-03-18T06:07:42;99259.91;;;9.01;100.00
48882;BME280;57063;51.406;-2.402;2023-03-18T06:10:10;99256.75;;;8.97;100.00
48882;BME280;57063;51.406;-2.402;2023-03-18T06:12:37;99255.00;;;8.98;100.00
48882;BME280;57063;51.406;-2.402;2023-03-18T06:15:03;99280.41;;;9.03;100.00
48882;BME280;57063;51.406;-2.402;2023-03-18T06:17:29;99267.22;;;9.07;100.00
48882;BME280;57063;51.406;-2.402;2023-03-18T06:19:54;99281.41;;;9.13;100.00
48882;BME280;57063;51.406;-2.402;2023-03-18T06:22:21;99280.69;;;9.11;100.00
48882;BME280;57063;51.406;-2.402;2023-03-18T06:24:46;99286.97;;;9.07;100.00
48882;BME280;57063;51.406;-2.402;2023-03-18T06:27:12;99289.22;;;9.11;100.00
48882;BME280;57063;51.406;-2.402;2023-03-18T06:29:37;99291.63;;;9.02;100.00
48882;BME280;57063;51.406;-2.402;2023-03-18T06:32:03;99307.88;;;9.15;100.00
48882;BME280;57063;51.406;-2.402;2023-03-18T06:34:29;99319.69;;;9.17;100.00
48882;BME280;57063;51.406;-2.402;2023-03-18T06:36:54;99288.00;;;9.04;100.00
48882;BME280;57063;51.406;-2.402;2023-03-18T06:39:21;99302.91;;;9.12;100.00
48882;BME280;57063;51.406;-2.402;2023-03-18T06:41:46;99294.50;;;9.10;100.00
48882;BME280;57063;51.406;-2.402;2023-03-18T06:44:12;99312.50;;;9.10;100.00
48882;BME280;57063;51.406;-2.402;2023-03-18T06:46:38;99314.59;;;9.05;100.00
48882;BME280;57063;51.406;-2.402;2023-03-18T06:49:04;99317.53;;;9.11;100.00
48882;BME280;57063;51.406;-2.402;2023-03-18T06:51:30;99291.34;;;8.93;100.00
48882;BME280;57063;51.406;-2.402;2023-03-18T06:53:57;99324.03;;;9.17;100.00
48882;BME280;57063;51.406;-2.402;2023-03-18T06:56:22;99312.56;;;9.21;100.00
48882;BME280;57063;51.406;-2.402;2023-03-18T06:58:48;99324.53;;;9.22;100.00
48882;BME280;57063;51.406;-2.402;2023-03-18T07:01:13;99307.72;;;9.29;100.00
48882;BME280;57063;51.406;-2.402;2023-03-18T07:03:38;99332.78;;;9.51;100.00
48882;BME280;57063;51.406;-2.402;2023-03-18T07:06:05;99333.38;;;9.55;100.00
48882;BME280;57063;51.406;-2.402;2023-03-18T07:08:32;99316.06;;;9.57;100.00
48882;BME280;57063;51.406;-2.402;2023-03-18T07:10:57;99333.72;;;9.74;100.00
48882;BME280;57063;51.406;-2.402;2023-03-18T07:13:22;99337.47;;;10.05;100.00
48882;BME280;57063;51.406;-2.402;2023-03-18T07:15:48;99315.34;;;10.14;100.00
48882;BME280;57063;51.406;-2.402;2023-03-18T07:18:13;99322.19;;;10.26;100.00
48882;BME280;57063;51.406;-2.402;2023-03-18T07:20:39;99339.88;;;10.66;100.00
48882;BME280;57063;51.406;-2.402;2023-03-18T07:23:06;99343.38;;;10.54;100.00
48882;BME280;57063;51.406;-2.402;2023-03-18T07:25:31;99342.50;;;10.31;100.00
48882;BME280;57063;51.406;-2.402;2023-03-18T07:27:58;99333.69;;;10.22;100.00
48882;BME280;57063;51.406;-2.402;2023-03-18T07:30:25;99344.25;;;10.31;100.00
48882;BME280;57063;51.406;-2.402;2023-03-18T07:32:51;99348.78;;;10.62;100.00
48882;BME280;57063;51.406;-2.402;2023-03-18T07:35:16;99347.50;;;11.02;100.00
48882;BME280;57063;51.406;-2.402;2023-03-18T07:37:42;99346.34;;;11.72;100.00
48882;BME280;57063;51.406;-2.402;2023-03-18T07:40:08;99361.31;;;14.53;88.02
48882;BME280;57063;51.406;-2.402;2023-03-18T07:42:35;99346.00;;;12.72;95.59
48882;BME280;57063;51.406;-2.402;2023-03-18T07:45:01;99347.63;;;11.89;100.00
48882;BME280;57063;51.406;-2.402;2023-03-18T07:47:26;99347.63;;;11.11;100.00
48882;BME280;57063;51.406;-2.402;2023-03-18T07:49:52;99367.81;;;11.40;100.00
48882;BME280;57063;51.406;-2.402;2023-03-18T07:52:18;99349.25;;;11.46;100.00
48882;BME280;57063;51.406;-2.402;2023-03-18T07:54:43;99365.63;;;11.90;100.00
48882;BME280;57063;51.406;-2.402;2023-03-18T07:57:10;99361.44;;;11.55;100.00
48882;BME280;57063;51.406;-2.402;2023-03-18T07:59:35;99350.94;;;11.25;99.37
48882;BME280;57063;51.406;-2.402;2023-03-18T08:02:02;99365.75;;;11.66;100.00
48882;BME280;57063;51.406;-2.402;2023-03-18T08:04:30;99358.19;;;11.31;100.00
48882;BME280;57063;51.406;-2.402;2023-03-18T08:06:56;99373.00;;;11.18;100.00
48882;BME280;57063;51.406;-2.402;2023-03-18T08:09:22;99371.94;;;11.09;100.00
48882;BME280;57063;51.406;-2.402;2023-03-18T08:11:48;99374.53;;;11.31;100.00
48882;BME280;57063;51.406;-2.402;2023-03-18T08:14:13;99361.59;;;11.97;96.83
48882;BME280;57063;51.406;-2.402;2023-03-18T08:16:38;99358.78;;;13.25;87.63
48882;BME280;57063;51.406;-2.402;2023-03-18T08:19:04;99356.34;;;13.33;85.91
48882;BME280;57063;51.406;-2.402;2023-03-18T08:21:29;99365.47;;;13.78;86.01
48882;BME280;57063;51.406;-2.402;2023-03-18T08:23:55;99369.28;;;17.22;68.93
48882;BME280;57063;51.406;-2.402;2023-03-18T08:26:21;99385.75;;;19.75;57.63
48882;BME280;57063;51.406;-2.402;2023-03-18T08:28:47;99385.19;;;17.45;64.57
48882;BME280;57063;51.406;-2.402;2023-03-18T08:31:12;99386.84;;;15.97;68.86
48882;BME280;57063;51.406;-2.402;2023-03-18T08:33:38;99395.44;;;15.80;69.27
48882;BME280;57063;51.406;-2.402;2023-03-18T08:36:06;99382.41;;;14.97;71.69
48882;BME280;57063;51.406;-2.402;2023-03-18T08:38:32;99388.66;;;14.67;75.02
48882;BME280;57063;51.406;-2.402;2023-03-18T08:40:57;99383.19;;;14.60;74.84
48882;BME280;57063;51.406;-2.402;2023-03-18T08:43:23;99408.06;;;14.24;76.13
48882;BME280;57063;51.406;-2.402;2023-03-18T08:45:53;99397.97;;;14.01;76.31
48882;BME280;57063;51.406;-2.402;2023-03-18T08:48:19;99409.84;;;14.33;75.01
48882;BME280;57063;51.406;-2.402;2023-03-18T08:50:45;99397.69;;;13.95;75.81
48882;BME280;57063;51.406;-2.402;2023-03-18T08:53:11;99406.72;;;14.00;79.48
48882;BME280;57063;51.406;-2.402;2023-03-18T08:55:37;99409.13;;;13.82;81.46
48882;BME280;57063;51.406;-2.402;2023-03-18T08:58:04;99395.88;;;13.56;78.37
48882;BME280;57063;51.406;-2.402;2023-03-18T09:00:31;99405.00;;;13.60;76.70
48882;BME280;57063;51.406;-2.402;2023-03-18T09:02:56;99404.78;;;13.73;79.48
48882;BME280;57063;51.406;-2.402;2023-03-18T09:05:22;99405.00;;;13.60;76.54
48882;BME280;57063;51.406;-2.402;2023-03-18T09:07:48;99421.41;;;13.70;77.87
48882;BME280;57063;51.406;-2.402;2023-03-18T09:10:13;99412.09;;;14.94;74.71
48882;BME280;57063;51.406;-2.402;2023-03-18T09:12:43;99426.31;;;18.43;59.75
48882;BME280;57063;51.406;-2.402;2023-03-18T09:15:11;99423.34;;;18.95;54.32
48882;BME280;57063;51.406;-2.402;2023-03-18T09:17:38;99439.03;;;18.46;56.47
48882;BME280;57063;51.406;-2.402;2023-03-18T09:20:08;99447.34;;;23.72;44.66
48882;BME280;57063;51.406;-2.402;2023-03-18T09:22:34;99441.16;;;27.47;37.20
48882;BME280;57063;51.406;-2.402;2023-03-18T09:25:00;99458.94;;;30.17;33.07
48882;BME280;57063;51.406;-2.402;2023-03-18T09:27:26;99440.09;;;32.76;31.10
48882;BME280;57063;51.406;-2.402;2023-03-18T09:29:52;99442.38;;;33.73;27.04
48882;BME280;57063;51.406;-2.402;2023-03-18T09:32:18;99440.94;;;33.45;27.05
48882;BME280;57063;51.406;-2.402;2023-03-18T09:34:43;99451.78;;;27.95;31.18
48882;BME280;57063;51.406;-2.402;2023-03-18T09:37:10;99453.41;;;29.09;31.20
48882;BME280;57063;51.406;-2.402;2023-03-18T09:39:35;99449.00;;;25.98;35.07
48882;BME280;57063;51.406;-2.402;2023-03-18T09:42:23;99464.25;;;25.51;36.47
48882;BME280;57063;51.406;-2.402;2023-03-18T09:44:58;99482.03;;;24.84;38.29
48882;BME280;57063;51.406;-2.402;2023-03-18T09:50:26;99490.59;;;30.31;30.58
48882;BME280;57063;51.406;-2.402;2023-03-18T09:53:47;99471.28;;;24.52;38.05
48882;BME280;57063;51.406;-2.402;2023-03-18T09:56:17;99456.13;;;23.79;39.94
48882;BME280;57063;51.406;-2.402;2023-03-18T09:59:02;99466.88;;;22.80;42.74
48882;BME280;57063;51.406;-2.402;2023-03-18T10:01:30;99451.81;;;26.03;36.68
48882;BME280;57063;51.406;-2.402;2023-03-18T10:04:46;99562.84;;;28.64;33.33
48882;BME280;57063;51.406;-2.402;2023-03-18T10:07:04;99619.00;;;30.95;29.20
48882;BME280;57063;51.406;-2.402;2023-03-18T10:09:39;99645.06;;;33.93;26.39
48882;BME280;57063;51.406;-2.402;2023-03-18T10:12:15;99485.97;;;33.58;26.00
48882;BME280;57063;51.406;-2.402;2023-03-18T10:14:47;99634.25;;;30.83;30.30
48882;BME280;57063;51.406;-2.402;2023-03-18T10:17:28;99466.22;;;25.69;35.82
48882;BME280;57063;51.406;-2.402;2023-03-18T10:20:02;99459.88;;;30.11;29.71
48882;BME280;57063;51.406;-2.402;2023-03-18T10:23:08;99530.88;;;33.51;25.99
48882;BME280;57063;51.406;-2.402;2023-03-18T10:26:01;99553.06;;;30.74;28.02
48882;BME280;57063;51.406;-2.402;2023-03-18T12:26:11;99493.91;;;18.29;57.91
48882;BME280;57063;51.406;-2.402;2023-03-18T12:35:46;99466.03;;;16.13;65.67
48882;BME280;57063;51.406;-2.402;2023-03-18T12:43:50;99477.38;;;15.94;67.36
48882;BME280;57063;51.406;-2.402;2023-03-18T12:46:36;99458.50;;;15.92;67.74
48882;BME280;57063;51.406;-2.402;2023-03-18T12:53:02;99493.09;;;15.74;66.09
48882;BME280;57063;51.406;-2.402;2023-03-18T12:55:49;99466.03;;;15.57;67.27
48882;BME280;57063;51.406;-2.402;2023-03-18T13:01:48;99506.88;;;16.48;64.33
48882;BME280;57063;51.406;-2.402;2023-03-18T15:45:03;99539.97;;;14.69;65.02
48882;BME280;57063;51.406;-2.402;2023-03-18T15:47:32;99575.13;;;14.83;64.14
48882;BME280;57063;51.406;-2.402;2023-03-18T15:50:30;99577.72;;;14.53;66.07
48882;BME280;57063;51.406;-2.402;2023-03-18T16:43:27;99606.28;;;12.32;75.76
48882;BME280;57063;51.406;-2.402;2023-03-18T16:45:57;99590.69;;;11.89;77.62
48882;BME280;57063;51.406;-2.402;2023-03-18T16:48:27;99602.44;;;12.15;77.60
48882;BME280;57063;51.406;-2.402;2023-03-18T16:50:53;99603.97;;;12.18;76.46
48882;BME280;57063;51.406;-2.402;2023-03-18T16:53:21;99613.38;;;12.08;76.91
48882;BME280;57063;51.406;-2.402;2023-03-18T16:56:00;99620.19;;;12.20;76.33
48882;BME280;57063;51.406;-2.402;2023-03-18T16:59:10;99619.47;;;11.95;76.15
48882;BME280;57063;51.406;-2.402;2023-03-18T17:51:01;99713.50;;;10.24;88.13
48882;BME280;57063;51.406;-2.402;2023-03-18T17:53:30;99730.41;;;10.28;88.96
48882;BME280;57063;51.406;-2.402;2023-03-18T17:55:57;99700.38;;;10.02;88.62
48882;BME280;57063;51.406;-2.402;2023-03-18T17:58:26;99702.94;;;10.27;87.43
48882;BME280;57063;51.406;-2.402;2023-03-18T18:00:52;99728.53;;;10.43;86.79
48882;BME280;57063;51.406;-2.402;2023-03-18T18:03:26;99743.13;;;10.44;86.81
48882;BME280;57063;51.406;-2.402;2023-03-18T18:06:08;99718.84;;;10.21;87.40
48882;BME280;57063;51.406;-2.402;2023-03-18T18:08:41;99719.66;;;10.09;87.57
48882;BME280;57063;51.406;-2.402;2023-03-18T22:00:20;99927.72;;;9.24;100.00
48882;BME280;57063;51.406;-2.402;2023-03-18T22:02:55;99945.41;;;9.30;100.00
48882;BME280;57063;51.406;-2.402;2023-03-18T22:05:22;99973.53;;;9.33;100.00
48882;BME280;57063;51.406;-2.402;2023-03-18T22:07:49;99937.84;;;8.98;100.00
48882;BME280;57063;51.406;-2.402;2023-03-18T22:10:24;99951.75;;;9.10;100.00
48882;BME280;57063;51.406;-2.402;2023-03-18T22:12:50;99966.53;;;9.07;100.00
48882;BME280;57063;51.406;-2.402;2023-03-18T22:15:35;99968.66;;;9.14;100.00
48882;BME280;57063;51.406;-2.402;2023-03-18T22:18:01;99914.44;;;8.59;100.00
48882;BME280;57063;51.406;-2.402;2023-03-18T22:20:26;99943.94;;;8.67;100.00
48882;BME280;57063;51.406;-2.402;2023-03-18T22:22:52;99947.84;;;8.44;100.00
48882;BME280;57063;51.406;-2.402;2023-03-18T22:25:34;99969.16;;;8.46;100.00
48882;BME280;57063;51.406;-2.402;2023-03-18T22:28:01;99974.78;;;8.21;100.00
48882;BME280;57063;51.406;-2.402;2023-03-18T22:30:28;100011.38;;;8.42;100.00
48882;BME280;57063;51.406;-2.402;2023-03-18T22:32:56;99997.59;;;8.27;100.00
48882;BME280;57063;51.406;-2.402;2023-03-18T22:35:23;99993.78;;;8.19;100.00
48882;BME280;57063;51.406;-2.402;2023-03-18T22:37:50;99989.88;;;8.11;100.00
48882;BME280;57063;51.406;-2.402;2023-03-18T22:42:55;99983.16;;;7.77;100.00
48882;BME280;57063;51.406;-2.402;2023-03-18T22:45:26;99986.31;;;7.66;100.00
48882;BME280;57063;51.406;-2.402;2023-03-18T22:47:54;100007.69;;;7.67;100.00
48882;BME280;57063;51.406;-2.402;2023-03-18T22:50:21;99997.13;;;7.56;100.00
48882;BME280;57063;51.406;-2.402;2023-03-18T22:52:48;99996.22;;;7.57;100.00
48882;BME280;57063;51.406;-2.402;2023-03-18T22:55:21;100015.97;;;7.56;100.00
48882;BME280;57063;51.406;-2.402;2023-03-18T22:57:48;99990.44;;;7.36;100.00
48882;BME280;57063;51.406;-2.402;2023-03-18T23:00:31;100010.09;;;7.37;100.00
48882;BME280;57063;51.406;-2.402;2023-03-18T23:02:59;100016.59;;;7.44;100.00
48882;BME280;57063;51.406;-2.402;2023-03-18T23:05:24;100002.00;;;7.44;100.00
48882;BME280;57063;51.406;-2.402;2023-03-18T23:07:50;99985.69;;;7.45;100.00
48882;BME280;57063;51.406;-2.402;2023-03-18T23:10:17;100013.34;;;7.74;100.00
48882;BME280;57063;51.406;-2.402;2023-03-18T23:12:44;99992.38;;;7.48;100.00
48882;BME280;57063;51.406;-2.402;2023-03-18T23:15:18;100007.03;;;7.63;100.00
48882;BME280;57063;51.406;-2.402;2023-03-18T23:17:45;100013.81;;;7.80;100.00
48882;BME280;57063;51.406;-2.402;2023-03-18T23:20:13;99989.13;;;7.78;100.00
48882;BME280;57063;51.406;-2.402;2023-03-18T23:22:39;99992.78;;;7.74;100.00
48882;BME280;57063;51.406;-2.402;2023-03-18T23:25:06;100000.09;;;7.81;100.00
48882;BME280;57063;51.406;-2.402;2023-03-18T23:27:31;100015.56;;;7.80;100.00
48882;BME280;57063;51.406;-2.402;2023-03-18T23:29:58;100008.84;;;7.77;100.00
48882;BME280;57063;51.406;-2.402;2023-03-18T23:32:24;100042.34;;;7.91;100.00